sensor_id;sensor_type;location;lat;lon;timestamp;temperature;humidity
18777;DHT22;9517;51.174;4.160;2023-03-17T00:00:34;11.70;99.90
18777;DHT22;9517;51.174;4.160;2023-03-17T00:03:04;11.70;99.90
18777;DHT22;9517;51.174;4.160;2023-03-17T00:05:33;11.60;99.90
18777;DHT22;9517;51.174;4.160;2023-03-17T00:08:05;11.60;99.90
18777;DHT22;9517;51.174;4.160;2023-03-17T00:10:33;11.60;99.90
18777;DHT22;9517;51.174;4.160;2023-03-17T00:13:01;11.60;99.90
18777;DHT22;9517;51.174;4.160;2023-03-17T00:15:29;11.40;99.90
18777;DHT22;9517;51.174;4.160;2023-03-17T00:17:57;11.50;99.90
18777;DHT22;9517;51.174;4.160;2023-03-17T00:20:25;11.50;99.90
18777;DHT22;9517;51.174;4.160;2023-03-17T00:22:54;11.60;99.90
18777;DHT22;9517;51.174;4.160;2023-03-17T00:25:24;11.50;99.90
18777;DHT22;9517;51.174;4.160;2023-03-17T00:27:52;11.40;99.90
18777;DHT22;9517;51.174;4.160;2023-03-17T00:30:21;11.40;99.90
18777;DHT22;9517;51.174;4.160;2023-03-17T00:32:50;11.40;99.90
18777;DHT22;9517;51.174;4.160;2023-03-17T00:35:20;11.40;99.90
18777;DHT22;9517;51.174;4.160;2023-03-17T00:37:49;11.30;99.90
18777;DHT22;9517;51.174;4.160;2023-03-17T00:40:21;11.40;99.90
18777;DHT22;9517;51.174;4.160;2023-03-17T00:42:50;11.30;99.90
18777;DHT22;9517;51.174;4.160;2023-03-17T00:45:18;11.30;99.90
18777;DHT22;9517;51.174;4.160;2023-03-17T00:47:46;11.30;99.90
18777;DHT22;9517;51.174;4.160;2023-03-17T00:50:17;11.30;99.90
18777;DHT22;9517;51.174;4.160;2023-03-17T00:52:44;11.30;99.90
18777;DHT22;9517;51.174;4.160;2023-03-17T00:55:12;11.30;99.90
18777;DHT22;9517;51.174;4.160;2023-03-17T00:57:40;11.40;99.90
18777;DHT22;9517;51.174;4.160;2023-03-17T01:00:18;11.40;99.90
18777;DHT22;9517;51.174;4.160;2023-03-17T01:02:46;11.30;99.90
18777;DHT22;9517;51.174;4.160;2023-03-17T01:05:15;11.30;99.90
18777;DHT22;9517;51.174;4.160;2023-03-17T01:07:44;11.20;99.90
18777;DHT22;9517;51.174;4.160;2023-03-17T01:10:19;11.30;99.90
18777;DHT22;9517;51.174;4.160;2023-03-17T01:12:48;11.20;99.90
18777;DHT22;9517;51.174;4.160;2023-03-17T01:15:16;11.10;99.90
18777;DHT22;9517;51.174;4.160;2023-03-17T01:17:44;11.10;99.90
18777;DHT22;9517;51.174;4.160;2023-03-17T01:20:17;11.20;99.90
18777;DHT22;9517;51.174;4.160;2023-03-17T01:22:44;11.20;99.90
18777;DHT22;9517;51.174;4.160;2023-03-17T01:25:11;11.10;99.90
18777;DHT22;9517;51.174;4.160;2023-03-17T01:27:39;11.10;99.90
18777;DHT22;9517;51.174;4.160;2023-03-17T01:30:16;11.20;99.90
18777;DHT22;9517;51.174;4.160;2023-03-17T01:32:47;11.20;99.90
18777;DHT22;9517;51.174;4.160;2023-03-17T01:35:16;11.30;99.90
18777;DHT22;9517;51.174;4.160;2023-03-17T01:37:44;11.30;99.90
18777;DHT22;9517;51.174;4.160;2023-03-17T01:40:15;11.30;99.90
18777;DHT22;9517;51.174;4.160;2023-03-17T01:42:46;11.20;99.90
18777;DHT22;9517;51.174;4.160;2023-03-17T01:48:19;11.20;99.90
18777;DHT22;9517;51.174;4.160;2023-03-17T01:50:49;11.30;99.90
18777;DHT22;9517;51.174;4.160;2023-03-17T01:53:17;11.30;99.90
18777;DHT22;9517;51.174;4.160;2023-03-17T01:55:45;11.30;99.90
18777;DHT22;9517;51.174;4.160;2023-03-17T01:58:14;11.30;99.90
18777;DHT22;9517;51.174;4.160;2023-03-17T02:00:42;11.30;99.90
18777;DHT22;9517;51.174;4.160;2023-03-17T02:03:11;11.30;99.90
18777;DHT22;9517;51.174;4.160;2023-03-17T02:05:38;11.30;99.90
18777;DHT22;9517;51.174;4.160;2023-03-17T02:08:10;11.30;99.90
18777;DHT22;9517;51.174;4.160;2023-03-17T02:10:38;11.30;99.90
18777;DHT22;9517;51.174;4.160;2023-03-17T02:13:08;11.40;99.90
18777;DHT22;9517;51.174;4.160;2023-03-17T02:15:37;11.30;99.90
18777;DHT22;9517;51.174;4.160;2023-03-17T02:18:06;11.20;99.90
18777;DHT22;9517;51.174;4.160;2023-03-17T02:23:42;11.20;99.90
18777;DHT22;9517;51.174;4.160;2023-03-17T02:26:10;11.10;99.90
18777;DHT22;9517;51.174;4.160;2023-03-17T02:28:37;11.20;99.90
18777;DHT22;9517;51.174;4.160;2023-03-17T02:31:05;11.20;99.90
18777;DHT22;9517;51.174;4.160;2023-03-17T02:33:33;11.30;99.90
18777;DHT22;9517;51.174;4.160;2023-03-17T02:36:00;11.20;99.90
18777;DHT22;9517;51.174;4.160;2023-03-17T02:38:27;11.20;99.90
18777;DHT22;9517;51.174;4.160;2023-03-17T02:40:56;11.20;99.90
18777;DHT22;9517;51.174;4.160;2023-03-17T02:43:23;11.30;99.90
18777;DHT22;9517;51.174;4.160;2023-03-17T02:45:50;11.20;99.90
18777;DHT22;9517;51.174;4.160;2023-03-17T02:48:18;11.20;99.90
18777;DHT22;9517;51.174;4.160;2023-03-17T02:50:45;11.10;99.90
18777;DHT22;9517;51.174;4.160;2023-03-17T02:53:12;11.00;99.90
18777;DHT22;9517;51.174;4.160;2023-03-17T02:55:40;10.90;99.90
18777;DHT22;9517;51.174;4.160;2023-03-17T02:58:09;11.00;99.90
18777;DHT22;9517;51.174;4.160;2023-03-17T03:00:36;11.10;99.90
18777;DHT22;9517;51.174;4.160;2023-03-17T03:03:05;11.10;99.90
18777;DHT22;9517;51.174;4.160;2023-03-17T03:05:32;11.00;99.90
18777;DHT22;9517;51.174;4.160;2023-03-17T03:08:00;11.10;99.90
18777;DHT22;9517;51.174;4.160;2023-03-17T03:10:27;11.00;99.90
18777;DHT22;9517;51.174;4.160;2023-03-17T03:12:55;11.10;99.90
18777;DHT22;9517;51.174;4.160;2023-03-17T03:15:23;11.00;99.90
18777;DHT22;9517;51.174;4.160;2023-03-17T03:17:51;11.00;99.90
18777;DHT22;9517;51.174;4.160;2023-03-17T03:20:18;11.00;99.90
18777;DHT22;9517;51.174;4.160;2023-03-17T03:22:45;11.00;99.90
18777;DHT22;9517;51.174;4.160;2023-03-17T03:25:12;11.00;99.90
18777;DHT22;9517;51.174;4.160;2023-03-17T03:27:39;11.00;99.90
18777;DHT22;9517;51.174;4.160;2023-03-17T03:30:08;11.00;99.90
18777;DHT22;9517;51.174;4.160;2023-03-17T03:32:37;11.00;99.90
18777;DHT22;9517;51.174;4.160;2023-03-17T03:35:05;10.90;99.90
18777;DHT22;9517;51.174;4.160;2023-03-17T03:37:33;10.90;99.90
18777;DHT22;9517;51.174;4.160;2023-03-17T03:40:00;11.00;99.90
18777;DHT22;9517;51.174;4.160;2023-03-17T03:42:27;11.00;99.90
18777;DHT22;9517;51.174;4.160;2023-03-17T03:44:54;10.90;99.90
18777;DHT22;9517;51.174;4.160;2023-03-17T03:47:21;10.90;99.90
18777;DHT22;9517;51.174;4.160;2023-03-17T03:49:50;10.90;99.90
18777;DHT22;9517;51.174;4.160;2023-03-17T03:52:17;11.00;99.90
18777;DHT22;9517;51.174;4.160;2023-03-17T03:54:44;11.00;99.90
18777;DHT22;9517;51.174;4.160;2023-03-17T03:57:11;10.80;99.90
18777;DHT22;9517;51.174;4.160;2023-03-17T03:59:38;10.70;99.90
18777;DHT22;9517;51.174;4.160;2023-03-17T04:02:05;10.80;99.90
18777;DHT22;9517;51.174;4.160;2023-03-17T04:04:33;10.80;99.90
18777;DHT22;9517;51.174;4.160;2023-03-17T04:07:01;10.70;99.90
18777;DHT22;9517;51.174;4.160;2023-03-17T04:09:28;10.80;99.90
18777;DHT22;9517;51.174;4.160;2023-03-17T04:11:56;10.80;99.90
18777;DHT22;9517;51.174;4.160;2023-03-17T04:14:23;10.80;99.90
18777;DHT22;9517;51.174;4.160;2023-03-17T04:16:50;10.90;99.90
18777;DHT22;9517;51.174;4.160;2023-03-17T04:19:17;10.80;99.90
18777;DHT22;9517;51.174;4.160;2023-03-17T04:21:44;10.80;99.90
18777;DHT22;9517;51.174;4.160;2023-03-17T04:24:13;10.90;99.90
18777;DHT22;9517;51.174;4.160;2023-03-17T04:26:41;10.90;99.90
18777;DHT22;9517;51.174;4.160;2023-03-17T04:29:08;10.90;99.90
18777;DHT22;9517;51.174;4.160;2023-03-17T04:31:40;11.10;99.90
18777;DHT22;9517;51.174;4.160;2023-03-17T04:34:10;11.00;99.90
18777;DHT22;9517;51.174;4.160;2023-03-17T04:36:39;11.00;99.90
18777;DHT22;9517;51.174;4.160;2023-03-17T04:39:07;10.90;99.90
18777;DHT22;9517;51.174;4.160;2023-03-17T04:41:35;10.80;99.90
18777;DHT22;9517;51.174;4.160;2023-03-17T04:44:03;10.80;99.90
18777;DHT22;9517;51.174;4.160;2023-03-17T04:46:30;10.70;99.90
18777;DHT22;9517;51.174;4.160;2023-03-17T04:48:57;10.80;99.90
18777;DHT22;9517;51.174;4.160;2023-03-17T04:51:25;10.90;99.90
18777;DHT22;9517;51.174;4.160;2023-03-17T04:53:52;10.90;99.90
18777;DHT22;9517;51.174;4.160;2023-03-17T04:56:19;10.90;99.90
18777;DHT22;9517;51.174;4.160;2023-03-17T04:58:48;10.80;99.90
18777;DHT22;9517;51.174;4.160;2023-03-17T05:01:15;10.80;99.90
18777;DHT22;9517;51.174;4.160;2023-03-17T05:03:42;10.80;99.90
18777;DHT22;9517;51.174;4.160;2023-03-17T05:06:10;10.90;99.90
18777;DHT22;9517;51.174;4.160;2023-03-17T05:08:37;10.80;99.90
18777;DHT22;9517;51.174;4.160;2023-03-17T05:11:04;10.80;99.90
18777;DHT22;9517;51.174;4.160;2023-03-17T05:13:31;10.70;99.90
18777;DHT22;9517;51.174;4.160;2023-03-17T05:16:00;10.60;99.90
18777;DHT22;9517;51.174;4.160;2023-03-17T05:18:27;10.60;99.90
18777;DHT22;9517;51.174;4.160;2023-03-17T05:20:55;10.60;99.90
18777;DHT22;9517;51.174;4.160;2023-03-17T05:23:22;10.50;99.90
18777;DHT22;9517;51.174;4.160;2023-03-17T05:25:49;10.40;99.90
18777;DHT22;9517;51.174;4.160;2023-03-17T05:28:17;10.50;99.90
18777;DHT22;9517;51.174;4.160;2023-03-17T05:30:46;10.40;99.90
18777;DHT22;9517;51.174;4.160;2023-03-17T05:33:15;10.40;99.90
18777;DHT22;9517;51.174;4.160;2023-03-17T05:35:42;10.40;99.90
18777;DHT22;9517;51.174;4.160;2023-03-17T05:38:12;10.40;99.90
18777;DHT22;9517;51.174;4.160;2023-03-17T05:40:40;10.50;99.90
18777;DHT22;9517;51.174;4.160;2023-03-17T05:43:08;10.40;99.90
18777;DHT22;9517;51.174;4.160;2023-03-17T05:45:36;10.40;99.90
18777;DHT22;9517;51.174;4.160;2023-03-17T05:48:03;10.40;99.90
18777;DHT22;9517;51.174;4.160;2023-03-17T05:50:32;10.50;99.90
18777;DHT22;9517;51.174;4.160;2023-03-17T05:52:59;10.50;99.90
18777;DHT22;9517;51.174;4.160;2023-03-17T05:55:26;10.50;99.90
18777;DHT22;9517;51.174;4.160;2023-03-17T05:57:54;10.50;99.90
18777;DHT22;9517;51.174;4.160;2023-03-17T06:00:21;10.50;99.90
18777;DHT22;9517;51.174;4.160;2023-03-17T06:02:49;10.50;99.90
18777;DHT22;9517;51.174;4.160;2023-03-17T06:05:16;10.40;99.90
18777;DHT22;9517;51.174;4.160;2023-03-17T06:07:45;10.30;99.90
18777;DHT22;9517;51.174;4.160;2023-03-17T06:10:12;10.30;99.90
18777;DHT22;9517;51.174;4.160;2023-03-17T06:12:39;10.40;99.90
18777;DHT22;9517;51.174;4.160;2023-03-17T06:15:07;10.50;99.90
18777;DHT22;9517;51.174;4.160;2023-03-17T06:17:35;10.40;99.90
18777;DHT22;9517;51.174;4.160;2023-03-17T06:20:03;10.50;99.90
18777;DHT22;9517;51.174;4.160;2023-03-17T06:22:30;10.50;99.90
18777;DHT22;9517;51.174;4.160;2023-03-17T06:24:59;10.50;99.90
18777;DHT22;9517;51.174;4.160;2023-03-17T06:27:26;10.60;99.90
18777;DHT22;9517;51.174;4.160;2023-03-17T06:29:53;10.50;99.90
18777;DHT22;9517;51.174;4.160;2023-03-17T06:32:22;10.50;99.90
18777;DHT22;9517;51.174;4.160;2023-03-17T06:34:50;10.50;99.90
18777;DHT22;9517;51.174;4.160;2023-03-17T06:37:18;10.50;99.90
18777;DHT22;9517;51.174;4.160;2023-03-17T06:39:46;10.50;99.90
18777;DHT22;9517;51.174;4.160;2023-03-17T06:42:15;10.60;99.90
18777;DHT22;9517;51.174;4.160;2023-03-17T06:44:43;10.60;99.90
18777;DHT22;9517;51.174;4.160;2023-03-17T06:47:11;10.60;99.90
18777;DHT22;9517;51.174;4.160;2023-03-17T06:49:38;10.70;99.90
18777;DHT22;9517;51.174;4.160;2023-03-17T06:52:05;10.70;99.90
18777;DHT22;9517;51.174;4.160;2023-03-17T06:54:33;10.70;99.90
18777;DHT22;9517;51.174;4.160;2023-03-17T06:57:01;10.80;99.90
18777;DHT22;9517;51.174;4.160;2023-03-17T06:59:30;10.80;99.90
18777;DHT22;9517;51.174;4.160;2023-03-17T07:01:56;10.80;99.90
18777;DHT22;9517;51.174;4.160;2023-03-17T07:04:24;10.80;99.90
18777;DHT22;9517;51.174;4.160;2023-03-17T07:06:52;10.70;99.90
18777;DHT22;9517;51.174;4.160;2023-03-17T07:09:19;10.90;99.90
18777;DHT22;9517;51.174;4.160;2023-03-17T07:11:46;11.00;99.90
18777;DHT22;9517;51.174;4.160;2023-03-17T07:14:14;11.00;99.90
18777;DHT22;9517;51.174;4.160;2023-03-17T07:16:42;11.20;99.90
18777;DHT22;9517;51.174;4.160;2023-03-17T07:19:09;11.30;99.90
18777;DHT22;9517;51.174;4.160;2023-03-17T07:21:37;11.50;99.90
18777;DHT22;9517;51.174;4.160;2023-03-17T07:24:04;11.60;99.90
18777;DHT22;9517;51.174;4.160;2023-03-17T07:26:31;11.50;99.90
18777;DHT22;9517;51.174;4.160;2023-03-17T07:28:58;11.60;99.90
18777;DHT22;9517;51.174;4.160;2023-03-17T07:31:26;11.80;99.90
18777;DHT22;9517;51.174;4.160;2023-03-17T07:33:55;11.90;99.90
18777;DHT22;9517;51.174;4.160;2023-03-17T07:36:23;12.00;99.90
18777;DHT22;9517;51.174;4.160;2023-03-17T07:38:50;12.10;99.90
18777;DHT22;9517;51.174;4.160;2023-03-17T07:41:17;12.10;99.90
18777;DHT22;9517;51.174;4.160;2023-03-17T07:43:45;12.20;99.90
18777;DHT22;9517;51.174;4.160;2023-03-17T07:46:12;12.40;99.90
18777;DHT22;9517;51.174;4.160;2023-03-17T07:48:39;12.50;99.90
18777;DHT22;9517;51.174;4.160;2023-03-17T07:51:12;12.50;99.90
18777;DHT22;9517;51.174;4.160;2023-03-17T07:53:41;12.60;99.90
18777;DHT22;9517;51.174;4.160;2023-03-17T07:56:09;12.40;99.90
18777;DHT22;9517;51.174;4.160;2023-03-17T07:58:36;12.40;99.90
18777;DHT22;9517;51.174;4.160;2023-03-17T08:01:05;12.60;99.90
18777;DHT22;9517;51.174;4.160;2023-03-17T08:03:33;12.70;99.90
18777;DHT22;9517;51.174;4.160;2023-03-17T08:06:01;12.80;99.90
18777;DHT22;9517;51.174;4.160;2023-03-17T08:08:32;13.00;99.90
18777;DHT22;9517;51.174;4.160;2023-03-17T08:11:01;13.10;99.90
18777;DHT22;9517;51.174;4.160;2023-03-17T08:13:29;13.30;99.90
18777;DHT22;9517;51.174;4.160;2023-03-17T08:15:56;13.00;99.90
18777;DHT22;9517;51.174;4.160;2023-03-17T08:18:24;13.10;99.90
18777;DHT22;9517;51.174;4.160;2023-03-17T08:20:51;13.30;99.90
18777;DHT22;9517;51.174;4.160;2023-03-17T08:23:19;13.40;99.90
18777;DHT22;9517;51.174;4.160;2023-03-17T08:25:47;13.40;99.90
18777;DHT22;9517;51.174;4.160;2023-03-17T08:28:15;13.60;99.90
18777;DHT22;9517;51.174;4.160;2023-03-17T08:30:42;13.60;99.90
18777;DHT22;9517;51.174;4.160;2023-03-17T08:33:12;13.20;99.90
18777;DHT22;9517;51.174;4.160;2023-03-17T08:35:39;13.10;99.90
18777;DHT22;9517;51.174;4.160;2023-03-17T08:38:07;13.40;99.90
18777;DHT22;9517;51.174;4.160;2023-03-17T08:40:34;13.50;99.90
18777;DHT22;9517;51.174;4.160;2023-03-17T08:43:03;13.30;99.90
18777;DHT22;9517;51.174;4.160;2023-03-17T08:45:31;13.40;99.90
18777;DHT22;9517;51.174;4.160;2023-03-17T08:47:58;13.50;99.90
18777;DHT22;9517;51.174;4.160;2023-03-17T08:50:26;14.10;99.90
18777;DHT22;9517;51.174;4.160;2023-03-17T08:52:54;14.40;99.90
18777;DHT22;9517;51.174;4.160;2023-03-17T08:55:21;14.50;99.90
18777;DHT22;9517;51.174;4.160;2023-03-17T08:57:51;14.70;99.90
18777;DHT22;9517;51.174;4.160;2023-03-17T09:00:20;14.80;99.90
18777;DHT22;9517;51.174;4.160;2023-03-17T09:02:47;15.00;99.90
18777;DHT22;9517;51.174;4.160;2023-03-17T09:05:16;15.30;99.90
18777;DHT22;9517;51.174;4.160;2023-03-17T09:07:44;15.10;99.90
18777;DHT22;9517;51.174;4.160;2023-03-17T09:10:11;15.20;99.90
18777;DHT22;9517;51.174;4.160;2023-03-17T09:12:41;15.30;99.90
18777;DHT22;9517;51.174;4.160;2023-03-17T09:15:10;15.40;99.90
18777;DHT22;9517;51.174;4.160;2023-03-17T09:17:38;15.40;99.90
18777;DHT22;9517;51.174;4.160;2023-03-17T09:20:09;15.80;99.90
18777;DHT22;9517;51.174;4.160;2023-03-17T09:22:38;15.90;99.90
18777;DHT22;9517;51.174;4.160;2023-03-17T09:25:05;15.60;99.90
18777;DHT22;9517;51.174;4.160;2023-03-17T09:27:33;15.40;99.90
18777;DHT22;9517;51.174;4.160;2023-03-17T09:30:01;15.30;99.90
18777;DHT22;9517;51.174;4.160;2023-03-17T09:32:28;14.90;99.90
18777;DHT22;9517;51.174;4.160;2023-03-17T09:34:56;14.80;99.90
18777;DHT22;9517;51.174;4.160;2023-03-17T09:37:24;14.70;99.90
18777;DHT22;9517;51.174;4.160;2023-03-17T09:39:51;14.50;99.90
18777;DHT22;9517;51.174;4.160;2023-03-17T09:42:37;14.40;99.90
18777;DHT22;9517;51.174;4.160;2023-03-17T09:45:27;14.40;99.90
18777;DHT22;9517;51.174;4.160;2023-03-17T09:48:10;14.60;99.90
18777;DHT22;9517;51.174;4.160;2023-03-17T09:50:46;14.70;99.90
18777;DHT22;9517;51.174;4.160;2023-03-17T09:53:17;15.20;99.90
18777;DHT22;9517;51.174;4.160;2023-03-17T09:55:48;15.40;99.90
18777;DHT22;9517;51.174;4.160;2023-03-17T09:58:20;15.50;99.90
18777;DHT22;9517;51.174;4.160;2023-03-17T10:00:51;15.60;99.90
18777;DHT22;9517;51.174;4.160;2023-03-17T10:03:19;15.60;99.90
18777;DHT22;9517;51.174;4.160;2023-03-17T10:05:48;15.50;99.90
18777;DHT22;9517;51.174;4.160;2023-03-17T10:08:18;15.50;99.90
18777;DHT22;9517;51.174;4.160;2023-03-17T10:10:51;15.50;99.90
18777;DHT22;9517;51.174;4.160;2023-03-17T10:13:27;15.80;99.90
18777;DHT22;9517;51.174;4.160;2023-03-17T10:16:02;16.00;99.90
18777;DHT22;9517;51.174;4.160;2023-03-17T10:18:38;16.20;99.90
18777;DHT22;9517;51.174;4.160;2023-03-17T10:21:13;16.70;99.90
18777;DHT22;9517;51.174;4.160;2023-03-17T10:23:41;16.70;99.90
18777;DHT22;9517;51.174;4.160;2023-03-17T10:26:20;16.70;99.90
18777;DHT22;9517;51.174;4.160;2023-03-17T10:28:49;16.70;99.90
18777;DHT22;9517;51.174;4.160;2023-03-17T10:31:18;16.40;99.90
18777;DHT22;9517;51.174;4.160;2023-03-17T10:33:48;16.40;99.90
18777;DHT22;9517;51.174;4.160;2023-03-17T10:36:33;16.60;99.90
18777;DHT22;9517;51.174;4.160;2023-03-17T10:39:03;17.00;99.90
18777;DHT22;9517;51.174;4.160;2023-03-17T10:41:32;17.40;99.90
18777;DHT22;9517;51.174;4.160;2023-03-17T10:44:00;17.80;99.90
18777;DHT22;9517;51.174;4.160;2023-03-17T10:46:27;17.90;99.90
18777;DHT22;9517;51.174;4.160;2023-03-17T10:48:56;17.80;99.90
18777;DHT22;9517;51.174;4.160;2023-03-17T10:51:33;17.70;99.90
18777;DHT22;9517;51.174;4.160;2023-03-17T10:54:07;17.70;99.90
18777;DHT22;9517;51.174;4.160;2023-03-17T10:56:35;17.30;99.90
18777;DHT22;9517;51.174;4.160;2023-03-17T10:59:05;17.60;99.90
18777;DHT22;9517;51.174;4.160;2023-03-17T11:01:36;17.80;99.90
18777;DHT22;9517;51.174;4.160;2023-03-17T11:04:25;18.30;99.90
18777;DHT22;9517;51.174;4.160;2023-03-17T11:06:54;18.50;99.90
18777;DHT22;9517;51.174;4.160;2023-03-17T11:09:23;18.50;99.90
18777;DHT22;9517;51.174;4.160;2023-03-17T11:12:00;18.30;99.90
18777;DHT22;9517;51.174;4.160;2023-03-17T11:14:28;17.70;99.90
18777;DHT22;9517;51.174;4.160;2023-03-17T11:16:56;17.60;99.90
18777;DHT22;9517;51.174;4.160;2023-03-17T11:19:36;17.40;99.90
18777;DHT22;9517;51.174;4.160;2023-03-17T11:22:13;17.60;99.90
18777;DHT22;9517;51.174;4.160;2023-03-17T11:24:46;17.60;99.90
18777;DHT22;9517;51.174;4.160;2023-03-17T11:27:26;17.90;99.90
18777;DHT22;9517;51.174;4.160;2023-03-17T11:30:16;17.90;99.90
18777;DHT22;9517;51.174;4.160;2023-03-17T11:32:54;17.70;99.90
18777;DHT22;9517;51.174;4.160;2023-03-17T11:35:34;17.40;99.90
18777;DHT22;9517;51.174;4.160;2023-03-17T11:38:16;17.30;99.90
18777;DHT22;9517;51.174;4.160;2023-03-17T11:43:45;18.20;99.90
18777;DHT22;9517;51.174;4.160;2023-03-17T11:46:19;18.40;99.90
18777;DHT22;9517;51.174;4.160;2023-03-17T11:48:56;18.70;99.90
18777;DHT22;9517;51.174;4.160;2023-03-17T11:51:32;19.20;99.90
18777;DHT22;9517;51.174;4.160;2023-03-17T11:54:14;19.60;99.90
18777;DHT22;9517;51.174;4.160;2023-03-17T11:56:46;20.30;99.90
18777;DHT22;9517;51.174;4.160;2023-03-17T11:59:22;21.00;99.90
18777;DHT22;9517;51.174;4.160;2023-03-17T12:01:57;21.80;99.90
18777;DHT22;9517;51.174;4.160;2023-03-17T12:04:29;22.50;99.90
18777;DHT22;9517;51.174;4.160;2023-03-17T12:07:05;22.70;99.90
18777;DHT22;9517;51.174;4.160;2023-03-17T12:09:40;22.90;99.90
18777;DHT22;9517;51.174;4.160;2023-03-17T12:12:12;22.60;99.90
18777;DHT22;9517;51.174;4.160;2023-03-17T12:14:43;22.10;99.90
18777;DHT22;9517;51.174;4.160;2023-03-17T12:17:19;21.50;99.90
18777;DHT22;9517;51.174;4.160;2023-03-17T12:19:57;20.80;99.90
18777;DHT22;9517;51.174;4.160;2023-03-17T12:22:31;20.60;99.90
18777;DHT22;9517;51.174;4.160;2023-03-17T12:25:10;20.60;99.90
18777;DHT22;9517;51.174;4.160;2023-03-17T12:27:45;21.20;99.90
18777;DHT22;9517;51.174;4.160;2023-03-17T12:30:22;21.50;99.90
18777;DHT22;9517;51.174;4.160;2023-03-17T12:32:57;21.00;99.90
18777;DHT22;9517;51.174;4.160;2023-03-17T12:35:28;20.60;99.90
18777;DHT22;9517;51.174;4.160;2023-03-17T12:37:58;20.70;99.90
18777;DHT22;9517;51.174;4.160;2023-03-17T12:40:31;21.10;99.90
18777;DHT22;9517;51.174;4.160;2023-03-17T12:43:16;21.50;99.90
18777;DHT22;9517;51.174;4.160;2023-03-17T12:46:01;22.80;99.90
18777;DHT22;9517;51.174;4.160;2023-03-17T12:48:48;23.10;99.90
18777;DHT22;9517;51.174;4.160;2023-03-17T12:51:33;23.30;99.90
18777;DHT22;9517;51.174;4.160;2023-03-17T12:54:11;24.20;99.90
18777;DHT22;9517;51.174;4.160;2023-03-17T12:56:44;23.70;99.90
18777;DHT22;9517;51.174;4.160;2023-03-17T12:59:16;23.80;99.90
18777;DHT22;9517;51.174;4.160;2023-03-17T13:01:51;24.10;99.90
18777;DHT22;9517;51.174;4.160;2023-03-17T13:04:30;25.30;99.90
18777;DHT22;9517;51.174;4.160;2023-03-17T13:07:04;26.50;99.90
18777;DHT22;9517;51.174;4.160;2023-03-17T13:09:41;26.20;99.90
18777;DHT22;9517;51.174;4.160;2023-03-17T13:15:26;26.70;99.90
18777;DHT22;9517;51.174;4.160;2023-03-17T13:18:25;26.40;99.90
18777;DHT22;9517;51.174;4.160;2023-03-17T13:21:09;25.70;99.90
18777;DHT22;9517;51.174;4.160;2023-03-17T13:23:40;25.80;99.90
18777;DHT22;9517;51.174;4.160;2023-03-17T13:26:10;26.60;99.90
18777;DHT22;9517;51.174;4.160;2023-03-17T13:28:44;26.70;99.90
18777;DHT22;9517;51.174;4.160;2023-03-17T13:31:30;26.90;99.90
18777;DHT22;9517;51.174;4.160;2023-03-17T13:34:05;27.30;99.90
18777;DHT22;9517;51.174;4.160;2023-03-17T13:36:39;27.70;99.90
18777;DHT22;9517;51.174;4.160;2023-03-17T13:39:50;28.50;99.90
18777;DHT22;9517;51.174;4.160;2023-03-17T13:42:34;28.20;98.70
18777;DHT22;9517;51.174;4.160;2023-03-17T13:45:19;27.80;98.90
18777;DHT22;9517;51.174;4.160;2023-03-17T13:47:51;28.20;99.20
18777;DHT22;9517;51.174;4.160;2023-03-17T13:50:22;27.90;98.10
18777;DHT22;9517;51.174;4.160;2023-03-17T13:52:54;27.50;99.90
18777;DHT22;9517;51.174;4.160;2023-03-17T13:55:34;27.50;98.90
18777;DHT22;9517;51.174;4.160;2023-03-17T13:58:21;27.60;98.80
18777;DHT22;9517;51.174;4.160;2023-03-17T14:00:55;27.20;99.60
18777;DHT22;9517;51.174;4.160;2023-03-17T14:03:30;26.40;99.90
18777;DHT22;9517;51.174;4.160;2023-03-17T14:06:02;26.40;98.90
18777;DHT22;9517;51.174;4.160;2023-03-17T14:08:32;25.70;99.90
18777;DHT22;9517;51.174;4.160;2023-03-17T14:11:02;25.70;99.90
18777;DHT22;9517;51.174;4.160;2023-03-17T14:13:36;25.80;99.90
18777;DHT22;9517;51.174;4.160;2023-03-17T14:16:13;25.50;99.30
18777;DHT22;9517;51.174;4.160;2023-03-17T14:18:45;25.10;99.90
18777;DHT22;9517;51.174;4.160;2023-03-17T14:21:24;25.00;99.90
18777;DHT22;9517;51.174;4.160;2023-03-17T14:23:53;24.40;99.90
18777;DHT22;9517;51.174;4.160;2023-03-17T14:26:22;24.30;99.90
18777;DHT22;9517;51.174;4.160;2023-03-17T14:28:49;25.00;99.90
18777;DHT22;9517;51.174;4.160;2023-03-17T14:31:21;24.80;99.50
18777;DHT22;9517;51.174;4.160;2023-03-17T14:33:50;24.30;99.90
18777;DHT22;9517;51.174;4.160;2023-03-17T14:36:19;24.60;99.90
18777;DHT22;9517;51.174;4.160;2023-03-17T14:38:48;24.70;99.90
18777;DHT22;9517;51.174;4.160;2023-03-17T14:41:17;24.90;99.90
18777;DHT22;9517;51.174;4.160;2023-03-17T14:43:45;24.80;99.90
18777;DHT22;9517;51.174;4.160;2023-03-17T14:46:16;23.30;99.90
18777;DHT22;9517;51.174;4.160;2023-03-17T14:48:49;22.30;99.90
18777;DHT22;9517;51.174;4.160;2023-03-17T14:51:24;21.60;99.90
18777;DHT22;9517;51.174;4.160;2023-03-17T14:53:55;21.00;99.90
18777;DHT22;9517;51.174;4.160;2023-03-17T14:56:30;20.70;99.90
18777;DHT22;9517;51.174;4.160;2023-03-17T14:59:04;20.50;99.90
18777;DHT22;9517;51.174;4.160;2023-03-17T15:01:33;20.40;99.90
18777;DHT22;9517;51.174;4.160;2023-03-17T15:04:09;20.20;99.90
18777;DHT22;9517;51.174;4.160;2023-03-17T15:06:47;19.90;99.90
18777;DHT22;9517;51.174;4.160;2023-03-17T15:09:19;19.70;99.90
18777;DHT22;9517;51.174;4.160;2023-03-17T15:11:53;19.70;99.90
18777;DHT22;9517;51.174;4.160;2023-03-17T15:14:26;19.80;99.90
18777;DHT22;9517;51.174;4.160;2023-03-17T15:16:54;19.90;99.90
18777;DHT22;9517;51.174;4.160;2023-03-17T15:19:27;19.90;99.90
18777;DHT22;9517;51.174;4.160;2023-03-17T15:21:55;19.70;99.90
18777;DHT22;9517;51.174;4.160;2023-03-17T15:24:36;19.80;99.90
18777;DHT22;9517;51.174;4.160;2023-03-17T15:27:05;19.50;99.90
18777;DHT22;9517;51.174;4.160;2023-03-17T15:29:32;19.40;99.90
18777;DHT22;9517;51.174;4.160;2023-03-17T15:32:08;19.40;99.90
18777;DHT22;9517;51.174;4.160;2023-03-17T15:34:37;19.30;99.90
18777;DHT22;9517;51.174;4.160;2023-03-17T15:37:12;19.20;99.90
18777;DHT22;9517;51.174;4.160;2023-03-17T15:39:40;19.10;99.90
18777;DHT22;9517;51.174;4.160;2023-03-17T15:42:07;18.90;99.90
18777;DHT22;9517;51.174;4.160;2023-03-17T15:44:34;19.10;99.90
18777;DHT22;9517;51.174;4.160;2023-03-17T15:47:02;19.20;99.90
18777;DHT22;9517;51.174;4.160;2023-03-17T15:49:29;19.00;99.90
18777;DHT22;9517;51.174;4.160;2023-03-17T15:51:58;18.80;99.90
18777;DHT22;9517;51.174;4.160;2023-03-17T15:54:25;18.80;99.90
18777;DHT22;9517;51.174;4.160;2023-03-17T15:56:52;18.70;99.90
18777;DHT22;9517;51.174;4.160;2023-03-17T15:59:19;18.60;99.90
18777;DHT22;9517;51.174;4.160;2023-03-17T16:01:46;18.60;99.90
18777;DHT22;9517;51.174;4.160;2023-03-17T16:04:14;18.50;99.90
18777;DHT22;9517;51.174;4.160;2023-03-17T16:06:42;18.50;99.90
18777;DHT22;9517;51.174;4.160;2023-03-17T16:09:15;18.50;99.90
18777;DHT22;9517;51.174;4.160;2023-03-17T16:11:43;18.50;99.90
18777;DHT22;9517;51.174;4.160;2023-03-17T16:14:10;18.40;99.90
18777;DHT22;9517;51.174;4.160;2023-03-17T16:16:39;18.30;99.90